Time;durP1;ratioP1;P1;durP2;ratioP2;P2;SDS_P1;SDS_P2;PMS_P1;PMS_P2;Temp;Humidity;BMP_temperature;BMP_pressure;BME280_temperature;BME280_humidity;BME280_pressure;Samples;Min_cycle;Max_cycle;Signal;HPM_P1;HPM_P2
2021/11/07 00:00:12;;;;;;;;;;;;;;;12.10;66.31;101150.75;4884345;28;98028;-58
2021/11/07 00:05:40;;;;;;;;;;;;;;;12.10;66.18;101131.84;4846925;28;98242;-59
2021/11/07 00:10:55;;;;;;;;;;;;;;;12.10;66.09;101126.44;4876374;28;98131;-67
2021/11/07 00:13:24;;;;;;;;;;;;;;;12.10;66.11;101120.22;4882173;28;98379;-59
2021/11/07 00:15:50;;;;;;;;;;;;;;;12.10;66.11;101122.94;4882644;28;97844;-60
2021/11/07 00:18:20;;;;;;;;;;;;;;;12.11;66.16;101133.50;4863764;28;97967;-58
2021/11/07 00:20:53;;;;;;;;;;;;;;;12.11;66.13;101111.88;4867885;28;98277;-67
2021/11/07 00:25:52;;;;;;;;;;;;;;;12.11;66.17;101113.78;4877746;28;118893;-59
2021/11/07 00:28:28;;;;;;;;;;;;;;;12.11;66.09;101092.16;4879969;28;98019;-58
2021/11/07 00:31:04;;;;;;;;;;;;;;;12.11;66.00;101092.16;4883040;28;98427;-61
2021/11/07 00:43:47;;;;;;;;;;;;;;;12.11;65.79;101086.75;4881690;28;98483;-67
2021/11/07 00:48:48;;;;;;;;;;;;;;;12.12;65.97;101083.78;4876036;28;98129;-58
2021/11/07 00:53:50;;;;;;;;;;;;;;;12.12;66.08;101075.66;4881608;28;98682;-67
2021/11/07 00:56:21;;;;;;;;;;;;;;;12.12;66.22;101069.44;4882244;28;98187;-67
2021/11/07 01:01:21;;;;;;;;;;;;;;;12.12;66.01;101058.63;4861981;28;98232;-67
2021/11/07 01:03:48;;;;;;;;;;;;;;;12.14;65.91;101059.16;4865984;28;98266;-58
2021/11/07 01:06:15;;;;;;;;;;;;;;;12.14;66.01;101064.56;4866761;28;97899;-67
2021/11/07 01:08:41;;;;;;;;;;;;;;;12.15;66.03;101058.13;4865104;28;97794;-58
2021/11/07 01:11:07;;;;;;;;;;;;;;;12.15;66.12;101050.00;4866430;28;104332;-67
2021/11/07 01:13:32;;;;;;;;;;;;;;;12.15;66.22;101048.13;4877808;28;128250;-59
2021/11/07 01:15:58;;;;;;;;;;;;;;;12.16;66.03;101049.72;4884272;28;127696;-59
2021/11/07 01:18:24;;;;;;;;;;;;;;;12.16;65.95;101038.13;4885252;28;116273;-67
2021/11/07 01:20:51;;;;;;;;;;;;;;;12.16;65.78;101028.13;4885357;28;108467;-67
2021/11/07 01:23:24;;;;;;;;;;;;;;;12.17;66.09;101023.53;4882732;28;98084;-67
2021/11/07 01:25:54;;;;;;;;;;;;;;;12.17;66.00;101018.91;4869918;28;98071;-58
2021/11/07 01:28:21;;;;;;;;;;;;;;;12.18;65.91;101012.47;4866014;28;97921;-59
2021/11/07 01:30:59;;;;;;;;;;;;;;;12.18;66.00;101020.56;4865230;28;99353;-67
2021/11/07 01:33:27;;;;;;;;;;;;;;;12.19;65.83;101019.50;4865594;28;98929;-67
2021/11/07 01:41:20;;;;;;;;;;;;;;;12.20;66.04;100977.06;4856567;28;98076;-58
2021/11/07 01:43:46;;;;;;;;;;;;;;;12.20;65.93;100963.53;4847456;28;99718;-66
2021/11/07 01:51:22;;;;;;;;;;;;;;;12.21;65.92;100943.53;4862404;28;98388;-58
2021/11/07 01:53:49;;;;;;;;;;;;;;;12.21;65.92;100930.81;4864552;28;98366;-59
2021/11/07 01:56:15;;;;;;;;;;;;;;;12.21;66.04;100936.22;4864865;28;98957;-59
2021/11/07 01:58:42;;;;;;;;;;;;;;;12.21;65.87;100941.63;4849335;28;98190;-67
2021/11/07 02:01:08;;;;;;;;;;;;;;;12.21;65.80;100928.13;4864280;28;120377;-59
2021/11/07 02:03:34;;;;;;;;;;;;;;;12.22;65.72;100934.34;4862678;28;125606;-67
2021/11/07 02:06:00;;;;;;;;;;;;;;;12.22;65.78;100929.78;4860360;28;97822;-59
2021/11/07 02:08:26;;;;;;;;;;;;;;;12.22;65.73;100916.25;4845954;28;110073;-58
2021/11/07 02:10:54;;;;;;;;;;;;;;;12.22;65.79;100918.13;4855391;28;128215;-58
2021/11/07 02:13:20;;;;;;;;;;;;;;;12.22;65.48;100901.91;4865126;28;99184;-67
2021/11/07 02:15:46;;;;;;;;;;;;;;;12.22;65.68;100896.50;4851447;28;116536;-58
2021/11/07 02:18:12;;;;;;;;;;;;;;;12.21;65.73;100903.81;4863626;28;98053;-58
2021/11/07 02:20:40;;;;;;;;;;;;;;;12.22;65.82;100904.59;4865547;28;98641;-58
2021/11/07 02:23:08;;;;;;;;;;;;;;;12.21;65.51;100903.00;4864637;28;98883;-67
2021/11/07 02:25:34;;;;;;;;;;;;;;;12.22;65.81;100907.31;4865213;28;98182;-67
2021/11/07 02:28:02;;;;;;;;;;;;;;;12.22;65.65;100897.34;4865450;28;97822;-59
2021/11/07 02:30:28;;;;;;;;;;;;;;;12.21;65.51;100889.47;4864683;28;98890;-58
2021/11/07 02:32:55;;;;;;;;;;;;;;;12.21;65.61;100884.88;4862754;28;122149;-58
2021/11/07 02:35:21;;;;;;;;;;;;;;;12.21;65.65;100889.47;4864872;28;98408;-58
2021/11/07 02:37:48;;;;;;;;;;;;;;;12.20;65.68;100880.56;4864535;28;98108;-67
2021/11/07 02:40:14;;;;;;;;;;;;;;;12.19;65.59;100878.94;4864409;28;98738;-66
2021/11/07 02:42:42;;;;;;;;;;;;;;;12.20;65.41;100871.66;4864699;28;99385;-67
2021/11/07 02:45:12;;;;;;;;;;;;;;;12.18;65.57;100860.28;4864381;28;97925;-58
2021/11/07 02:47:38;;;;;;;;;;;;;;;12.17;65.60;100850.56;4863400;28;114636;-58
2021/11/07 02:50:05;;;;;;;;;;;;;;;12.16;65.65;100846.25;4864774;28;97823;-58
2021/11/07 02:52:31;;;;;;;;;;;;;;;12.15;65.57;100850.03;4864352;28;98695;-59
2021/11/07 02:54:57;;;;;;;;;;;;;;;12.15;65.54;100844.63;4864273;28;97936;-67
2021/11/07 02:57:23;;;;;;;;;;;;;;;12.14;65.52;100843.78;4846267;28;117288;-67
2021/11/07 02:59:57;;;;;;;;;;;;;;;12.15;65.48;100842.72;4864422;28;98239;-58
2021/11/07 03:02:23;;;;;;;;;;;;;;;12.15;65.32;100842.72;4864314;28;98446;-58
2021/11/07 03:04:49;;;;;;;;;;;;;;;12.15;65.44;100836.53;4864480;28;98583;-58
2021/11/07 03:07:15;;;;;;;;;;;;;;;12.15;65.46;100837.31;4864425;28;117533;-58
2021/11/07 03:09:41;;;;;;;;;;;;;;;12.15;65.43;100826.50;4864033;28;98827;-58
2021/11/07 03:12:07;;;;;;;;;;;;;;;12.14;65.28;100822.16;4863454;28;128202;-67
2021/11/07 03:14:41;;;;;;;;;;;;;;;12.14;65.27;100810.56;4863297;28;109805;-58
2021/11/07 03:17:09;;;;;;;;;;;;;;;12.13;65.14;100808.94;4864780;28;97926;-58
2021/11/07 03:19:35;;;;;;;;;;;;;;;12.14;65.18;100805.16;4863669;28;98240;-67
2021/11/07 03:22:06;;;;;;;;;;;;;;;12.12;65.14;100800.03;4863463;28;125195;-59
2021/11/07 03:24:32;;;;;;;;;;;;;;;12.11;65.12;100794.91;4862924;28;98682;-58
2021/11/07 03:26:58;;;;;;;;;;;;;;;12.10;65.03;100785.16;4864074;28;97987;-67
2021/11/07 03:29:32;;;;;;;;;;;;;;;12.09;65.16;100789.75;4863797;28;98262;-66
2021/11/07 03:32:08;;;;;;;;;;;;;;;12.09;65.12;100783.53;4844933;28;98474;-59
2021/11/07 03:34:42;;;;;;;;;;;;;;;12.09;65.23;100776.25;4863115;28;98373;-66
2021/11/07 03:37:09;;;;;;;;;;;;;;;12.09;65.14;100770.84;4864627;28;98071;-66
2021/11/07 03:39:36;;;;;;;;;;;;;;;12.10;65.21;100771.63;4864261;28;98365;-58
2021/11/07 03:42:03;;;;;;;;;;;;;;;12.10;65.05;100777.03;4863250;28;99245;-67
2021/11/07 03:44:29;;;;;;;;;;;;;;;12.10;65.05;100761.63;4862937;28;122744;-58
2021/11/07 03:46:55;;;;;;;;;;;;;;;12.11;64.98;100752.47;4864621;28;97863;-66
2021/11/07 03:49:22;;;;;;;;;;;;;;;12.11;64.95;100747.06;4863720;28;98623;-58
2021/11/07 03:51:48;;;;;;;;;;;;;;;12.12;64.98;100745.19;4863479;28;98436;-67
2021/11/07 03:54:14;;;;;;;;;;;;;;;12.12;64.67;100737.06;4863230;28;97871;-66
2021/11/07 03:56:40;;;;;;;;;;;;;;;12.13;65.12;100731.38;4863093;28;113145;-58
2021/11/07 03:59:06;;;;;;;;;;;;;;;12.13;64.95;100717.06;4862694;28;113917;-66
2021/11/07 04:01:33;;;;;;;;;;;;;;;12.13;64.79;100717.06;4862518;28;117901;-58
2021/11/07 04:03:59;;;;;;;;;;;;;;;12.13;64.52;100707.06;4862107;28;98472;-58
2021/11/07 04:06:25;;;;;;;;;;;;;;;12.14;64.88;100707.88;4846235;28;97962;-60
2021/11/07 04:08:51;;;;;;;;;;;;;;;12.13;64.65;100698.97;4845064;28;98322;-58
2021/11/07 04:11:17;;;;;;;;;;;;;;;12.13;64.46;100704.34;4844929;28;127932;-66
2021/11/07 04:13:44;;;;;;;;;;;;;;;12.14;64.78;100697.88;4845534;28;98223;-67
2021/11/07 04:16:10;;;;;;;;;;;;;;;12.13;64.44;100690.03;4863802;28;98260;-58
2021/11/07 04:18:37;;;;;;;;;;;;;;;12.15;64.72;100679.78;4845616;28;98360;-67
2021/11/07 04:21:03;;;;;;;;;;;;;;;12.14;64.63;100673.53;4845025;28;120096;-59
2021/11/07 04:23:29;;;;;;;;;;;;;;;12.14;64.66;100680.84;4863372;28;98740;-67
2021/11/07 04:25:56;;;;;;;;;;;;;;;12.14;64.43;100675.44;4863764;28;98246;-58
2021/11/07 04:28:22;;;;;;;;;;;;;;;12.14;64.40;100673.53;4845054;28;98637;-58
2021/11/07 04:30:48;;;;;;;;;;;;;;;12.13;64.37;100674.63;4829407;28;98598;-58
2021/11/07 04:33:15;;;;;;;;;;;;;;;12.10;64.25;100669.78;4830218;28;98565;-58
2021/11/07 04:35:41;;;;;;;;;;;;;;;12.14;64.21;100659.22;4866572;28;97956;-58
2021/11/07 04:38:07;;;;;;;;;;;;;;;12.12;64.34;100661.41;4865297;28;124504;-66
2021/11/07 04:40:33;;;;;;;;;;;;;;;12.13;64.24;100660.31;4865529;28;129866;-67
2021/11/07 04:42:59;;;;;;;;;;;;;;;12.12;64.21;100658.72;4865563;28;100177;-58
2021/11/07 04:45:25;;;;;;;;;;;;;;;12.12;64.01;100653.31;4865920;28;98146;-66
2021/11/07 04:47:51;;;;;;;;;;;;;;;12.13;63.89;100641.41;4866290;28;98715;-58
2021/11/07 04:50:18;;;;;;;;;;;;;;;12.13;64.13;100636.00;4865792;28;106314;-58
2021/11/07 04:52:44;;;;;;;;;;;;;;;12.13;64.13;100628.69;4865625;28;98159;-67
2021/11/07 04:55:10;;;;;;;;;;;;;;;12.14;63.89;100633.00;4865611;28;97824;-58
2021/11/07 04:57:41;;;;;;;;;;;;;;;12.15;63.94;100625.75;4865248;28;112130;-67
2021/11/07 05:00:09;;;;;;;;;;;;;;;12.15;63.82;100617.63;4849182;28;98539;-59
2021/11/07 05:02:35;;;;;;;;;;;;;;;12.14;63.84;100616.78;4865398;28;98067;-58
2021/11/07 05:05:01;;;;;;;;;;;;;;;12.15;63.86;100615.75;4866308;28;97892;-58
2021/11/07 05:07:27;;;;;;;;;;;;;;;12.16;63.61;100617.34;4865852;28;99106;-58
2021/11/07 05:09:53;;;;;;;;;;;;;;;12.16;63.68;100601.13;4866579;28;98645;-58
2021/11/07 05:12:19;;;;;;;;;;;;;;;12.17;63.70;100597.34;4865142;28;98159;-59
2021/11/07 05:14:45;;;;;;;;;;;;;;;12.17;63.77;100593.84;4865209;28;117872;-64
2021/11/07 05:17:11;;;;;;;;;;;;;;;12.17;63.63;100594.63;4864274;28;127448;-67
2021/11/07 05:19:37;;;;;;;;;;;;;;;12.17;63.71;100577.63;4864423;28;127889;-66
2021/11/07 05:22:04;;;;;;;;;;;;;;;12.16;63.68;100579.53;4865540;28;98314;-67
2021/11/07 05:24:30;;;;;;;;;;;;;;;12.15;63.95;100572.50;4865738;28;98278;-66
2021/11/07 05:26:56;;;;;;;;;;;;;;;12.15;63.73;100572.50;4867750;28;111937;-58
2021/11/07 05:29:22;;;;;;;;;;;;;;;12.17;63.65;100580.31;4884809;28;98748;-66
2021/11/07 05:31:48;;;;;;;;;;;;;;;12.16;63.62;100570.59;4882347;28;127231;-66
2021/11/07 05:34:14;;;;;;;;;;;;;;;12.16;63.63;100570.59;4866259;28;98112;-58
2021/11/07 05:36:41;;;;;;;;;;;;;;;12.16;63.55;100557.91;4883705;28;129366;-58
2021/11/07 05:39:08;;;;;;;;;;;;;;;12.15;63.61;100559.00;4879217;28;99486;-58
2021/11/07 05:41:34;;;;;;;;;;;;;;;12.16;63.69;100562.50;4866207;28;98624;-66
2021/11/07 05:44:00;;;;;;;;;;;;;;;12.17;63.57;100551.41;4867076;28;117538;-58
2021/11/07 05:46:26;;;;;;;;;;;;;;;12.17;63.49;100545.19;4880483;28;127665;-58
2021/11/07 05:48:52;;;;;;;;;;;;;;;12.16;63.46;100549.78;4867790;28;98311;-58
2021/11/07 05:51:18;;;;;;;;;;;;;;;12.17;63.42;100537.09;4882505;28;128313;-58
2021/11/07 05:53:44;;;;;;;;;;;;;;;12.16;63.45;100543.59;4884420;28;99277;-58
2021/11/07 05:56:10;;;;;;;;;;;;;;;12.16;63.37;100544.38;4884067;28;98311;-58
2021/11/07 05:58:36;;;;;;;;;;;;;;;12.16;63.47;100541.69;4883873;28;115654;-58
2021/11/07 06:01:02;;;;;;;;;;;;;;;12.16;63.29;100535.47;4884050;28;111911;-58
2021/11/07 06:03:28;;;;;;;;;;;;;;;12.17;63.41;100537.09;4865770;28;98160;-59
2021/11/07 06:05:54;;;;;;;;;;;;;;;12.18;63.32;100541.41;4882812;28;104303;-59
2021/11/07 06:08:20;;;;;;;;;;;;;;;12.17;63.31;100529.78;4867950;28;105635;-58
2021/11/07 06:10:46;;;;;;;;;;;;;;;12.18;63.60;100530.59;4864453;28;98933;-58
2021/11/07 06:13:12;;;;;;;;;;;;;;;12.19;63.43;100529.53;4864478;28;117432;-58
2021/11/07 06:15:38;;;;;;;;;;;;;;;12.21;63.27;100538.16;4865740;28;99280;-58
2021/11/07 06:18:04;;;;;;;;;;;;;;;12.21;63.42;100535.44;4874252;28;128121;-58
2021/11/07 06:20:30;;;;;;;;;;;;;;;12.23;63.30;100541.41;4864749;28;110496;-58
2021/11/07 06:22:56;;;;;;;;;;;;;;;12.23;63.30;100536.00;4880629;28;98158;-59
2021/11/07 06:25:22;;;;;;;;;;;;;;;12.24;63.50;100527.59;4882066;28;114424;-58
2021/11/07 06:27:48;;;;;;;;;;;;;;;12.25;63.20;100518.41;4882760;28;98972;-59
2021/11/07 06:30:14;;;;;;;;;;;;;;;12.26;63.12;100524.59;4883588;28;98644;-58
2021/11/07 06:32:40;;;;;;;;;;;;;;;12.27;63.18;100523.53;4883694;28;98178;-58
2021/11/07 06:35:11;;;;;;;;;;;;;;;12.28;63.20;100531.38;4883055;28;128408;-58
2021/11/07 06:37:37;;;;;;;;;;;;;;;12.29;63.09;100521.34;4882582;28;98098;-57
2021/11/07 06:40:04;;;;;;;;;;;;;;;12.30;63.18;100523.00;4882604;28;128431;-58
2021/11/07 06:42:30;;;;;;;;;;;;;;;12.31;63.19;100518.41;4879441;28;108560;-58
2021/11/07 06:44:56;;;;;;;;;;;;;;;12.32;63.14;100517.31;4896383;28;127840;-58
2021/11/07 06:47:22;;;;;;;;;;;;;;;12.32;62.97;100504.59;4898938;28;98690;-58
2021/11/07 06:49:49;;;;;;;;;;;;;;;12.33;62.96;100508.91;4888889;28;99221;-59
2021/11/07 06:52:15;;;;;;;;;;;;;;;12.33;62.90;100514.31;4898754;28;98071;-58
2021/11/07 06:54:41;;;;;;;;;;;;;;;12.34;63.05;100507.84;4879745;28;98168;-59
2021/11/07 06:57:07;;;;;;;;;;;;;;;12.34;63.31;100502.44;4884663;28;127643;-58
2021/11/07 06:59:33;;;;;;;;;;;;;;;12.37;62.78;100504.56;4898162;28;127624;-59
2021/11/07 07:01:59;;;;;;;;;;;;;;;12.39;62.84;100509.72;4894139;28;98086;-58
2021/11/07 07:04:25;;;;;;;;;;;;;;;12.40;62.74;100503.22;4886470;28;126914;-59
2021/11/07 07:06:51;;;;;;;;;;;;;;;12.42;62.89;100496.44;4897097;28;127597;-58
2021/11/07 07:09:24;;;;;;;;;;;;;;;12.44;62.57;100499.66;4898467;28;122073;-58
2021/11/07 07:11:54;;;;;;;;;;;;;;;12.47;62.55;100504.53;4893364;28;98955;-59
2021/11/07 07:14:30;;;;;;;;;;;;;;;12.49;62.64;100496.13;4898189;28;98249;-58
2021/11/07 07:19:40;;;;;;;;;;;;;;;12.58;62.48;100507.19;4889440;28;119702;-59
2021/11/07 07:22:16;;;;;;;;;;;;;;;12.60;62.41;100494.97;4893737;28;97995;-58
2021/11/07 07:25:18;;;;;;;;;;;;;;;12.61;62.45;100491.19;4881140;28;98276;-58
2021/11/07 07:28:12;;;;;;;;;;;;;;;12.62;62.54;100500.13;4893247;28;99058;-58
2021/11/07 07:33:25;;;;;;;;;;;;;;;12.64;62.43;100489.81;4896480;28;105156;-58
2021/11/07 07:35:51;;;;;;;;;;;;;;;12.67;62.39;100481.16;4888695;28;98364;-58
2021/11/07 07:38:17;;;;;;;;;;;;;;;12.70;62.53;100494.94;4897486;28;98324;-59
2021/11/07 07:40:43;;;;;;;;;;;;;;;12.74;62.41;100485.16;4890068;28;119201;-58
2021/11/07 07:43:09;;;;;;;;;;;;;;;12.80;62.27;100485.13;4897669;28;117795;-58
2021/11/07 07:45:35;;;;;;;;;;;;;;;12.84;62.32;100488.88;4890811;28;98683;-58
2021/11/07 07:48:02;;;;;;;;;;;;;;;12.84;62.37;100476.16;4886214;28;98788;-58
2021/11/07 07:50:28;;;;;;;;;;;;;;;12.89;62.27;100495.06;4880775;28;98343;-59
2021/11/07 07:52:55;;;;;;;;;;;;;;;12.89;62.38;100488.81;4898133;28;98382;-58
2021/11/07 07:55:20;;;;;;;;;;;;;;;12.89;62.36;100486.94;4889748;28;98381;-58
2021/11/07 07:57:47;;;;;;;;;;;;;;;12.88;62.36;100482.63;4891919;28;127357;-59
2021/11/07 08:00:14;;;;;;;;;;;;;;;12.89;62.56;100483.41;4892373;28;98034;-58
2021/11/07 08:02:39;;;;;;;;;;;;;;;12.88;62.63;100473.69;4880452;28;108262;-58
2021/11/07 08:05:06;;;;;;;;;;;;;;;12.88;62.71;100479.91;4871508;28;126407;-59
2021/11/07 08:07:32;;;;;;;;;;;;;;;12.92;62.61;100475.53;4872436;28;98612;-58
2021/11/07 08:09:58;;;;;;;;;;;;;;;12.97;62.32;100478.22;4891411;28;98336;-58
2021/11/07 08:12:24;;;;;;;;;;;;;;;13.02;62.36;100478.19;4895100;28;118755;-58
2021/11/07 08:14:51;;;;;;;;;;;;;;;13.06;62.28;100466.81;4896521;28;98437;-58
2021/11/07 08:17:17;;;;;;;;;;;;;;;13.10;62.39;100475.97;4896099;28;98929;-59
2021/11/07 08:19:42;;;;;;;;;;;;;;;13.16;62.19;100466.69;4876348;28;99455;-58
2021/11/07 08:22:08;;;;;;;;;;;;;;;13.26;62.08;100466.66;4896117;28;98084;-58
2021/11/07 08:24:36;;;;;;;;;;;;;;;13.35;62.05;100462.22;4897411;28;98154;-58
2021/11/07 08:27:03;;;;;;;;;;;;;;;13.42;61.82;100465.41;4871871;28;98689;-58
2021/11/07 08:29:29;;;;;;;;;;;;;;;13.44;62.08;100465.09;4894172;28;98207;-59
2021/11/07 08:31:56;;;;;;;;;;;;;;;13.46;61.81;100469.16;4897116;28;98054;-59
2021/11/07 08:34:26;;;;;;;;;;;;;;;13.51;62.13;100466.38;4897875;28;98325;-58
2021/11/07 08:37:00;;;;;;;;;;;;;;;13.54;61.80;100469.63;4887422;28;98482;-58
2021/11/07 08:39:39;;;;;;;;;;;;;;;13.61;61.88;100473.59;4896551;28;98076;-66
2021/11/07 08:42:16;;;;;;;;;;;;;;;13.67;62.00;100485.19;4898375;28;97906;-66
2021/11/07 09:01:29;;;;;;;;;;;;;;;13.57;62.49;100491.53;4895348;28;98039;-59
2021/11/07 09:06:47;;;;;;;;;;;;;;;13.56;62.40;100467.41;4895444;28;98138;-59
2021/11/07 09:09:14;;;;;;;;;;;;;;;13.51;62.37;100474.50;4898856;28;98751;-58
2021/11/07 09:11:49;;;;;;;;;;;;;;;13.49;62.53;100474.00;4897841;28;98030;-66
2021/11/07 09:14:17;;;;;;;;;;;;;;;13.53;62.38;100473.44;4898617;28;98003;-66
2021/11/07 09:16:43;;;;;;;;;;;;;;;13.58;62.29;100457.94;4897719;28;98350;-58
2021/11/07 09:19:11;;;;;;;;;;;;;;;13.57;62.38;100466.34;4898169;28;117823;-66
2021/11/07 09:21:41;;;;;;;;;;;;;;;13.51;62.47;100452.84;4885175;28;99481;-66
2021/11/07 09:24:13;;;;;;;;;;;;;;;13.48;62.50;100460.75;4902155;28;97968;-58
2021/11/07 09:26:45;;;;;;;;;;;;;;;13.43;62.77;100469.72;4896482;28;99270;-59
2021/11/07 09:29:21;;;;;;;;;;;;;;;13.41;62.57;100455.66;4899433;28;99509;-66
2021/11/07 09:32:13;;;;;;;;;;;;;;;13.45;62.37;100454.00;4901287;28;98168;-58
2021/11/07 09:34:47;;;;;;;;;;;;;;;13.40;62.53;100454.06;4901521;28;98043;-58
2021/11/07 09:39:58;;;;;;;;;;;;;;;13.29;62.96;100468.78;4882877;28;98472;-65
2021/11/07 09:42:31;;;;;;;;;;;;;;;13.24;63.14;100471.53;4883168;28;98651;-59
2021/11/07 09:45:09;;;;;;;;;;;;;;;13.20;62.90;100473.16;4885247;28;98169;-58
2021/11/07 09:47:35;;;;;;;;;;;;;;;13.16;63.12;100477.53;4900706;28;98104;-66
2021/11/07 09:50:02;;;;;;;;;;;;;;;13.14;63.12;100483.22;4883871;28;98335;-66
2021/11/07 09:52:36;;;;;;;;;;;;;;;13.14;63.23;100463.47;4900242;28;98118;-58
2021/11/07 09:55:04;;;;;;;;;;;;;;;13.15;62.81;100467.78;4885260;28;97951;-59
2021/11/07 09:57:30;;;;;;;;;;;;;;;13.17;62.87;100463.72;4867569;28;98684;-66
2021/11/07 09:59:59;;;;;;;;;;;;;;;13.21;63.04;100459.34;4882972;28;100041;-58
2021/11/07 10:02:26;;;;;;;;;;;;;;;13.23;62.96;100459.88;4900957;28;98279;-66
2021/11/07 10:04:53;;;;;;;;;;;;;;;13.23;63.16;100457.19;4902069;28;98071;-58
2021/11/07 10:07:25;;;;;;;;;;;;;;;13.22;63.36;100455.53;4900209;28;98287;-59
2021/11/07 10:09:57;;;;;;;;;;;;;;;13.20;63.10;100459.63;4896426;28;98095;-59
2021/11/07 10:12:41;;;;;;;;;;;;;;;13.20;63.39;100454.22;4881308;28;99663;-66
2021/11/07 10:15:10;;;;;;;;;;;;;;;13.22;63.14;100452.84;4881645;28;98084;-67
2021/11/07 10:20:29;;;;;;;;;;;;;;;13.21;63.05;100453.13;4878966;28;98724;-58
2021/11/07 10:22:58;;;;;;;;;;;;;;;13.18;63.27;100446.38;4882118;28;99136;-58
2021/11/07 10:25:39;;;;;;;;;;;;;;;13.19;63.18;100449.88;4880543;28;97962;-59
2021/11/07 10:28:23;;;;;;;;;;;;;;;13.21;63.20;100450.44;4895768;28;98850;-58
2021/11/07 10:31:15;;;;;;;;;;;;;;;13.20;63.39;100446.91;4890037;28;98253;-58
2021/11/07 10:36:54;;;;;;;;;;;;;;;13.29;63.58;100430.09;4896684;28;97858;-59
2021/11/07 10:39:15;;;;;;;;;;;;;;;13.37;63.16;100430.25;4891081;28;98654;-59
2021/11/07 10:52:44;;;;;;;;;;;;;;;13.65;63.10;100411.53;4878609;28;98677;-58
2021/11/07 10:55:23;;;;;;;;;;;;;;;13.61;62.92;100416.72;4895328;28;98771;-58
2021/11/07 10:57:53;;;;;;;;;;;;;;;13.60;62.89;100417.03;4888693;28;97957;-58
2021/11/07 11:00:39;;;;;;;;;;;;;;;13.58;63.09;100411.09;4885913;28;118621;-58
2021/11/07 11:03:18;;;;;;;;;;;;;;;13.53;63.38;100403.03;4894793;28;119208;-58
2021/11/07 11:06:06;;;;;;;;;;;;;;;13.51;63.58;100403.28;4883465;28;98399;-59
2021/11/07 11:08:39;;;;;;;;;;;;;;;13.53;63.14;100408.44;4891137;28;98033;-58
2021/11/07 11:27:29;;;;;;;;;;;;;;;14.15;62.68;100382.19;4897063;28;98149;-58
2021/11/07 11:43:14;;;;;;;;;;;;;;;14.16;63.00;100395.44;4896035;28;98044;-66
2021/11/07 11:45:43;;;;;;;;;;;;;;;14.10;63.04;100385.75;4900647;28;98538;-59
2021/11/07 11:51:56;;;;;;;;;;;;;;;14.03;62.82;100390.75;4871121;28;98236;-58
2021/11/07 11:57:42;;;;;;;;;;;;;;;13.92;63.39;100387.38;4895643;28;98707;-59
2021/11/07 12:03:02;;;;;;;;;;;;;;;13.90;63.19;100370.56;4891422;28;98202;-58
2021/11/07 12:08:16;;;;;;;;;;;;;;;13.87;63.08;100356.81;4894778;28;98236;-65
2021/11/07 12:10:47;;;;;;;;;;;;;;;13.88;63.16;100361.94;4884329;28;98774;-58
2021/11/07 12:14:03;;;;;;;;;;;;;;;13.88;63.38;100355.72;4888775;28;97813;-58
2021/11/07 12:16:51;;;;;;;;;;;;;;;13.82;63.65;100360.41;4891638;28;98929;-58
2021/11/07 12:19:18;;;;;;;;;;;;;;;13.80;63.34;100351.78;4892841;28;98614;-58
2021/11/07 12:21:55;;;;;;;;;;;;;;;13.81;63.57;100355.28;4894053;28;98197;-66
2021/11/07 12:24:54;;;;;;;;;;;;;;;13.80;63.48;100351.78;4884952;28;97850;-58
2021/11/07 12:27:52;;;;;;;;;;;;;;;13.78;63.69;100348.53;4898203;28;98306;-58
2021/11/07 12:30:26;;;;;;;;;;;;;;;13.78;63.61;100342.31;4888323;28;98315;-58
2021/11/07 12:33:01;;;;;;;;;;;;;;;13.79;63.67;100352.03;4896123;28;98588;-66
2021/11/07 12:35:41;;;;;;;;;;;;;;;13.82;63.25;100333.31;4897823;28;98288;-58
2021/11/07 12:41:12;;;;;;;;;;;;;;;13.89;63.34;100317.50;4896170;28;98045;-67
2021/11/07 12:43:43;;;;;;;;;;;;;;;13.89;63.23;100320.22;4892962;28;98495;-58
2021/11/07 12:49:22;;;;;;;;;;;;;;;13.92;63.23;100308.78;4893973;28;98495;-62
2021/11/07 12:51:59;;;;;;;;;;;;;;;13.92;63.46;100297.94;4883909;28;98937;-66
2021/11/07 12:54:24;;;;;;;;;;;;;;;13.94;63.22;100305.78;4895286;28;109815;-66
2021/11/07 12:57:07;;;;;;;;;;;;;;;13.94;63.34;100303.06;4903170;28;97959;-66
2021/11/07 12:59:54;;;;;;;;;;;;;;;13.95;63.19;100296.53;4873628;28;111408;-58
2021/11/07 13:02:28;;;;;;;;;;;;;;;13.95;63.61;100302.78;4895621;28;99110;-58
2021/11/07 13:05:00;;;;;;;;;;;;;;;13.97;63.29;100295.16;4900439;28;98201;-58
2021/11/07 13:07:34;;;;;;;;;;;;;;;13.99;63.50;100294.88;4896420;28;98015;-66
2021/11/07 13:10:07;;;;;;;;;;;;;;;13.99;63.34;100286.75;4878255;28;99423;-67
2021/11/07 13:12:42;;;;;;;;;;;;;;;13.99;63.40;100286.75;4887095;28;98648;-58
2021/11/07 13:15:29;;;;;;;;;;;;;;;14.00;63.63;100300.00;4892320;28;98607;-66
2021/11/07 13:18:13;;;;;;;;;;;;;;;14.00;63.17;100291.88;4901820;28;97965;-67
2021/11/07 13:27:00;;;;;;;;;;;;;;;13.97;63.75;100287.03;4877393;28;98641;-58
2021/11/07 13:29:38;;;;;;;;;;;;;;;13.94;63.57;100297.66;4902534;28;97880;-66
2021/11/07 13:32:30;;;;;;;;;;;;;;;13.91;63.57;100300.94;4895110;28;98419;-58
2021/11/07 13:35:15;;;;;;;;;;;;;;;13.86;63.61;100293.69;4889000;28;98637;-66
2021/11/07 13:37:57;;;;;;;;;;;;;;;13.83;63.80;100290.75;4877151;28;98105;-66
2021/11/07 13:40:34;;;;;;;;;;;;;;;13.80;64.15;100288.66;4891135;28;98343;-58
2021/11/07 13:43:13;;;;;;;;;;;;;;;13.76;63.93;100285.72;4874100;28;98615;-59
2021/11/07 13:45:41;;;;;;;;;;;;;;;13.72;64.26;100292.81;4886980;28;98434;-66
2021/11/07 13:48:17;;;;;;;;;;;;;;;13.70;64.09;100284.19;4901358;28;97948;-66
2021/11/07 13:50:43;;;;;;;;;;;;;;;13.66;64.12;100286.66;4876040;28;97986;-66
2021/11/07 13:53:16;;;;;;;;;;;;;;;13.62;64.33;100287.53;4871421;28;111702;-59
2021/11/07 13:55:42;;;;;;;;;;;;;;;13.60;64.33;100287.03;4878474;28;98764;-66
2021/11/07 13:58:13;;;;;;;;;;;;;;;13.60;64.34;100306.00;4900535;28;98077;-58
2021/11/07 14:00:39;;;;;;;;;;;;;;;13.57;64.38;100301.97;4901406;28;98006;-67
2021/11/07 14:03:14;;;;;;;;;;;;;;;13.55;64.03;100290.59;4901213;28;102508;-59
2021/11/07 14:05:53;;;;;;;;;;;;;;;13.54;64.35;100288.19;4876664;28;123290;-58
2021/11/07 14:08:19;;;;;;;;;;;;;;;13.49;64.14;100299.91;4900819;28;97993;-66
2021/11/07 14:10:45;;;;;;;;;;;;;;;13.47;64.59;100308.28;4894830;28;116401;-59
2021/11/07 14:13:13;;;;;;;;;;;;;;;13.47;64.10;100304.78;4900784;28;97832;-59
2021/11/07 14:15:43;;;;;;;;;;;;;;;13.47;64.44;100304.78;4900531;28;98285;-58
2021/11/07 14:18:13;;;;;;;;;;;;;;;13.42;64.41;100304.84;4900803;28;98395;-66
2021/11/07 14:20:47;;;;;;;;;;;;;;;13.41;64.57;100312.19;4901907;28;98195;-58
2021/11/07 14:23:29;;;;;;;;;;;;;;;13.42;64.03;100312.97;4881702;28;99267;-58
2021/11/07 14:26:08;;;;;;;;;;;;;;;13.40;64.45;100312.44;4890107;28;98875;-66
2021/11/07 14:28:48;;;;;;;;;;;;;;;13.37;64.21;100310.34;4899572;28;98698;-58
2021/11/07 14:31:17;;;;;;;;;;;;;;;13.35;64.53;100312.53;4893214;28;98422;-59
2021/11/07 14:34:05;;;;;;;;;;;;;;;13.35;64.64;100312.53;4882631;28;98953;-58
2021/11/07 14:36:52;;;;;;;;;;;;;;;13.32;64.39;100316.59;4901409;28;99443;-67
2021/11/07 14:42:52;;;;;;;;;;;;;;;13.28;64.16;100318.28;4881398;28;98366;-67
2021/11/07 14:45:51;;;;;;;;;;;;;;;13.26;64.41;100325.91;4897269;28;98410;-66
2021/11/07 14:54:08;;;;;;;;;;;;;;;13.17;64.27;100333.00;4874999;28;98191;-58
2021/11/07 15:01:39;;;;;;;;;;;;;;;13.12;64.30;100341.97;4896113;28;120660;-67
2021/11/07 15:04:11;;;;;;;;;;;;;;;13.11;64.60;100328.72;4901220;28;97854;-58
2021/11/07 15:06:43;;;;;;;;;;;;;;;13.09;64.50;100330.94;4899652;28;98307;-67
2021/11/07 15:09:26;;;;;;;;;;;;;;;13.09;64.53;100339.84;4881242;28;98345;-58
2021/11/07 15:12:31;;;;;;;;;;;;;;;13.06;64.61;100324.19;4883199;28;98113;-58
2021/11/07 15:18:04;;;;;;;;;;;;;;;13.02;64.63;100318.53;4892433;28;97815;-66
2021/11/07 15:20:35;;;;;;;;;;;;;;;13.01;64.53;100316.94;4902030;28;98676;-59
2021/11/07 15:23:02;;;;;;;;;;;;;;;13.00;64.37;100312.59;4887257;28;98836;-67